Time;durP1;ratioP1;P1;durP2;ratioP2;P2;SDS_P1;SDS_P2;PMS_P1;PMS_P2;Temp;Humidity;BMP_temperature;BMP_pressure;BME280_temperature;BME280_humidity;BME280_pressure;Samples;Min_cycle;Max_cycle;Signal;HPM_P1;HPM_P2
2021/10/07 00:00:50;;;;;;;2.20;1.20;;;22.40;53.80;;;;;;4960710;28;20051;-53
2021/10/07 00:03:16;;;;;;;2.35;1.30;;;22.40;53.80;;;;;;4969285;28;20066;-53
2021/10/07 00:05:42;;;;;;;4.20;1.30;;;22.40;53.80;;;;;;4969019;28;20058;-51
2021/10/07 00:08:07;;;;;;;3.28;1.33;;;22.40;53.90;;;;;;4967871;28;20430;-52
2021/10/07 00:10:33;;;;;;;2.08;1.27;;;22.40;53.90;;;;;;4966867;28;20027;-55
2021/10/07 00:12:59;;;;;;;2.67;1.35;;;22.40;53.80;;;;;;4968403;28;20150;-51
2021/10/07 00:15:25;;;;;;;1.98;1.23;;;22.40;53.90;;;;;;4963635;28;20125;-57
2021/10/07 00:17:50;;;;;;;2.08;1.17;;;22.40;53.90;;;;;;4963400;28;20041;-51
2021/10/07 00:20:17;;;;;;;1.98;1.20;;;22.40;53.90;;;;;;4957118;28;20092;-55
2021/10/07 00:22:43;;;;;;;2.03;1.30;;;22.40;53.90;;;;;;4954055;28;20526;-49
2021/10/07 00:25:13;;;;;;;2.58;1.33;;;22.40;53.90;;;;;;4964885;28;20037;-59
2021/10/07 00:27:38;;;;;;;1.98;1.10;;;22.40;53.90;;;;;;4968011;28;20436;-54
2021/10/07 00:30:18;;;;;;;2.97;1.48;;;22.40;53.90;;;;;;4958344;28;20024;-54
2021/10/07 00:33:05;;;;;;;;;;;22.40;53.90;;;;;;4968597;28;20038;-53
2021/10/07 00:36:15;;;;;;;2.13;1.30;;;22.30;53.90;;;;;;4954810;28;19925;-51
2021/10/07 00:41:03;;;;;;;2.10;1.10;;;22.30;53.90;;;;;;4956713;28;20163;-52
2021/10/07 00:43:29;;;;;;;2.10;1.25;;;22.30;53.90;;;;;;4977342;28;20056;-52
2021/10/07 00:45:59;;;;;;;2.17;1.20;;;22.30;53.90;;;;;;4957835;28;20035;-53
2021/10/07 00:48:24;;;;;;;1.38;1.10;;;22.30;53.90;;;;;;4963024;28;20066;-57
2021/10/07 00:50:51;;;;;;;2.20;1.20;;;22.30;53.90;;;;;;4960119;28;20727;-60
2021/10/07 00:53:18;;;;;;;2.75;1.30;;;22.30;53.90;;;;;;4959014;28;20026;-58
2021/10/07 00:55:45;;;;;;;2.10;1.25;;;22.30;53.90;;;;;;4963044;28;20031;-56
2021/10/07 00:58:13;;;;;;;2.10;1.20;;;22.30;53.90;;;;;;4968884;28;20038;-54
2021/10/07 01:00:38;;;;;;;2.25;1.00;;;22.30;53.90;;;;;;4962297;28;20057;-55
2021/10/07 01:03:04;;;;;;;1.95;1.20;;;22.30;53.90;;;;;;4963235;28;20459;-60
2021/10/07 01:05:30;;;;;;;1.83;1.20;;;22.30;54.00;;;;;;4967645;28;20027;-60
2021/10/07 01:07:57;;;;;;;1.85;1.20;;;22.30;54.00;;;;;;4967279;28;20642;-60
2021/10/07 01:10:24;;;;;;;2.33;1.10;;;22.30;54.00;;;;;;4968327;28;20027;-50
2021/10/07 01:12:50;;;;;;;2.30;1.30;;;22.20;53.90;;;;;;4964653;28;20037;-60
2021/10/07 01:15:15;;;;;;;1.88;1.20;;;22.20;53.90;;;;;;4960393;28;20436;-59
2021/10/07 01:17:41;;;;;;;1.58;1.00;;;22.20;53.90;;;;;;4975720;28;20443;-49
2021/10/07 01:20:07;;;;;;;1.80;1.23;;;22.20;54.00;;;;;;4958095;28;20121;-52
2021/10/07 01:22:33;;;;;;;1.98;1.00;;;22.20;54.00;;;;;;4959839;28;20129;-55
2021/10/07 01:25:00;;;;;;;2.42;1.17;;;22.20;54.00;;;;;;4966720;28;20081;-59
2021/10/07 01:27:28;;;;;;;2.58;1.25;;;22.20;54.50;;;;;;4959069;28;20037;-59
2021/10/07 01:29:57;;;;;;;2.22;1.27;;;22.20;53.90;;;;;;4967301;28;20543;-54
2021/10/07 01:32:23;;;;;;;1.80;1.00;;;22.20;54.00;;;;;;4958970;28;20074;-54
2021/10/07 01:34:48;;;;;;;2.25;1.08;;;22.20;54.00;;;;;;4958906;28;20513;-58
2021/10/07 01:37:14;;;;;;;2.38;1.20;;;22.20;54.00;;;;;;4960789;28;20046;-51
2021/10/07 01:39:40;;;;;;;2.05;1.17;;;22.20;54.00;;;;;;4974432;28;20042;-53
2021/10/07 01:42:06;;;;;;;1.92;1.10;;;22.20;54.00;;;;;;4968236;28;20027;-60
2021/10/07 01:44:31;;;;;;;2.05;1.20;;;22.20;54.00;;;;;;4965670;28;20043;-47
2021/10/07 01:46:57;;;;;;;1.70;1.20;;;22.20;54.10;;;;;;4964062;28;20032;-51
2021/10/07 01:49:23;;;;;;;2.30;1.10;;;22.20;54.10;;;;;;4964978;28;20023;-47
2021/10/07 01:51:49;;;;;;;2.08;1.00;;;22.10;54.00;;;;;;4962669;28;20141;-52
2021/10/07 01:54:15;;;;;;;2.20;1.38;;;22.10;54.00;;;;;;4967361;28;20035;-51
2021/10/07 01:56:42;;;;;;;2.15;1.20;;;22.10;54.00;;;;;;4970524;28;20093;-58
2021/10/07 01:59:07;;;;;;;1.60;1.10;;;22.10;54.00;;;;;;4959220;28;20042;-50
2021/10/07 02:01:34;;;;;;;2.88;1.15;;;22.10;54.00;;;;;;4964377;28;20045;-55
2021/10/07 02:04:04;;;;;;;1.35;1.00;;;22.10;54.00;;;;;;4959262;28;20039;-51
2021/10/07 02:06:30;;;;;;;1.45;1.00;;;22.10;54.00;;;;;;4967002;28;20214;-52
2021/10/07 02:08:56;;;;;;;1.98;1.20;;;22.10;54.00;;;;;;4968721;28;20549;-54
2021/10/07 02:11:21;;;;;;;2.28;1.20;;;22.10;54.00;;;;;;4959006;28;20050;-50
2021/10/07 02:13:47;;;;;;;1.52;1.00;;;22.10;54.00;;;;;;4969948;28;20038;-49
2021/10/07 02:16:13;;;;;;;1.48;0.90;;;22.10;54.00;;;;;;4968214;28;20035;-51
2021/10/07 02:18:38;;;;;;;2.15;1.20;;;22.10;54.00;;;;;;4956170;28;20135;-53
2021/10/07 02:21:04;;;;;;;1.83;1.00;;;22.10;54.10;;;;;;4965344;28;20086;-55
2021/10/07 02:23:31;;;;;;;1.65;1.08;;;22.10;54.00;;;;;;4970758;28;20479;-49
2021/10/07 02:25:57;;;;;;;1.60;1.08;;;22.10;54.00;;;;;;4972066;28;20451;-48
2021/10/07 02:28:22;;;;;;;2.40;1.17;;;22.10;54.10;;;;;;4970783;28;20070;-52
2021/10/07 02:30:48;;;;;;;1.63;0.90;;;22.10;54.10;;;;;;4957559;28;20496;-49
2021/10/07 02:33:14;;;;;;;1.88;1.10;;;22.00;54.00;;;;;;4958723;28;20042;-60
2021/10/07 02:35:40;;;;;;;2.35;1.10;;;22.00;54.00;;;;;;4963010;28;20348;-52
2021/10/07 02:38:06;;;;;;;1.65;1.30;;;22.00;54.00;;;;;;4970804;28;20030;-54
2021/10/07 02:40:32;;;;;;;2.08;1.25;;;22.00;54.00;;;;;;4969419;28;20110;-52
2021/10/07 02:42:58;;;;;;;1.50;0.90;;;22.00;54.00;;;;;;4963988;28;20114;-50
2021/10/07 02:45:25;;;;;;;2.47;1.15;;;22.00;54.10;;;;;;4963164;28;20093;-53
2021/10/07 02:47:53;;;;;;;1.67;1.20;;;22.00;54.00;;;;;;4967939;28;20162;-60
2021/10/07 02:50:21;;;;;;;1.73;1.00;;;22.00;54.00;;;;;;4964301;28;20452;-53
2021/10/07 02:52:48;;;;;;;1.40;1.00;;;22.00;54.10;;;;;;4967838;28;20046;-50
2021/10/07 02:55:14;;;;;;;1.63;1.10;;;22.00;54.10;;;;;;4980640;28;20090;-60
2021/10/07 02:57:45;;;;;;;1.67;1.00;;;22.00;54.10;;;;;;4971512;28;20040;-53
2021/10/07 03:00:12;;;;;;;1.92;1.00;;;22.00;54.10;;;;;;4959867;28;20036;-53
2021/10/07 03:02:38;;;;;;;1.58;1.10;;;22.00;54.10;;;;;;4969164;28;20027;-51
2021/10/07 03:05:04;;;;;;;1.83;1.10;;;21.90;54.10;;;;;;4966072;28;20053;-57
2021/10/07 03:07:30;;;;;;;1.52;1.15;;;22.00;54.10;;;;;;4963977;28;20101;-56
2021/10/07 03:09:56;;;;;;;1.52;1.05;;;21.90;54.10;;;;;;4970759;28;20106;-60
2021/10/07 03:12:22;;;;;;;1.42;1.00;;;22.00;54.10;;;;;;4952895;28;20046;-51
2021/10/07 03:14:48;;;;;;;1.70;1.10;;;22.00;54.10;;;;;;4954694;28;20035;-56
2021/10/07 03:17:13;;;;;;;1.98;1.10;;;22.00;54.10;;;;;;4966059;28;20058;-50
2021/10/07 03:19:40;;;;;;;2.20;1.00;;;21.90;54.10;;;;;;4971402;28;20093;-56
2021/10/07 03:22:06;;;;;;;1.77;1.00;;;21.90;54.10;;;;;;4966296;28;20435;-59
2021/10/07 03:24:33;;;;;;;1.55;1.00;;;21.90;54.10;;;;;;4967084;28;20030;-51
2021/10/07 03:27:00;;;;;;;1.73;1.02;;;21.90;54.10;;;;;;4966917;28;20033;-58
2021/10/07 03:29:26;;;;;;;1.67;1.05;;;21.90;54.10;;;;;;4967504;28;20130;-50
2021/10/07 03:31:52;;;;;;;1.30;0.90;;;21.90;54.10;;;;;;4963011;28;20526;-53
2021/10/07 03:34:17;;;;;;;1.60;1.20;;;21.90;54.10;;;;;;4958230;28;20050;-53
2021/10/07 03:36:43;;;;;;;2.05;0.90;;;21.80;54.10;;;;;;4960427;28;20581;-56
2021/10/07 03:39:09;;;;;;;1.30;0.90;;;21.90;54.60;;;;;;4963062;28;20023;-54
2021/10/07 03:41:34;;;;;;;1.55;1.00;;;21.90;54.10;;;;;;4956756;28;20043;-53
2021/10/07 03:44:00;;;;;;;1.65;0.90;;;21.90;54.10;;;;;;4963909;28;20027;-54
2021/10/07 03:46:25;;;;;;;1.83;0.90;;;21.90;54.10;;;;;;4967056;28;20053;-54
2021/10/07 03:48:51;;;;;;;2.10;1.08;;;21.80;54.10;;;;;;4959551;28;20030;-55
2021/10/07 03:51:17;;;;;;;1.45;0.98;;;21.90;54.10;;;;;;4963755;28;20488;-59
2021/10/07 03:53:42;;;;;;;1.60;0.98;;;21.80;54.10;;;;;;4968901;28;20081;-58
2021/10/07 03:56:08;;;;;;;1.77;1.00;;;21.80;54.10;;;;;;4968527;28;20428;-59
2021/10/07 03:58:34;;;;;;;3.05;1.10;;;21.80;54.10;;;;;;4972772;28;20049;-56
2021/10/07 04:01:00;;;;;;;1.58;0.95;;;21.80;54.10;;;;;;4969044;28;20074;-54
2021/10/07 04:03:26;;;;;;;2.08;0.90;;;21.80;54.10;;;;;;4964132;28;20052;-51
2021/10/07 04:05:52;;;;;;;2.03;0.90;;;21.80;54.10;;;;;;4957745;28;20460;-51
2021/10/07 04:08:17;;;;;;;1.38;1.02;;;21.80;54.10;;;;;;4964707;28;20038;-57
2021/10/07 04:10:43;;;;;;;1.48;0.93;;;21.80;54.10;;;;;;4960776;28;20030;-56
2021/10/07 04:13:09;;;;;;;1.23;1.00;;;21.80;54.10;;;;;;4957998;28;20031;-52
2021/10/07 04:15:34;;;;;;;1.17;0.90;;;21.80;54.20;;;;;;4965301;28;20043;-57
2021/10/07 04:18:00;;;;;;;1.40;0.90;;;21.80;54.10;;;;;;4969415;28;20599;-53
2021/10/07 04:20:26;;;;;;;1.77;1.05;;;21.80;54.20;;;;;;4957006;28;20841;-50
2021/10/07 04:22:52;;;;;;;1.63;1.00;;;21.80;54.20;;;;;;4962754;28;20439;-53
2021/10/07 04:25:17;;;;;;;1.20;0.85;;;21.80;54.20;;;;;;4965797;28;20062;-55
2021/10/07 04:27:43;;;;;;;1.42;1.05;;;21.80;54.20;;;;;;4969111;28;20118;-52
2021/10/07 04:30:10;;;;;;;0.95;0.80;;;21.80;54.20;;;;;;4968958;28;20028;-54
2021/10/07 04:32:36;;;;;;;1.75;0.90;;;21.80;54.20;;;;;;4960934;28;20347;-53
2021/10/07 04:35:04;;;;;;;1.90;1.00;;;21.80;54.20;;;;;;4957184;28;20062;-55
2021/10/07 04:37:29;;;;;;;1.00;0.80;;;21.70;54.10;;;;;;4959791;28;20132;-60
2021/10/07 04:39:55;;;;;;;1.23;0.80;;;21.70;54.20;;;;;;4975059;28;20030;-51
2021/10/07 04:42:20;;;;;;;1.67;0.90;;;21.80;54.30;;;;;;4954802;28;20630;-56
2021/10/07 04:44:46;;;;;;;1.75;0.90;;;21.70;54.20;;;;;;4966002;28;20042;-54
2021/10/07 04:47:11;;;;;;;2.17;0.98;;;21.70;54.20;;;;;;4964206;28;20059;-54
2021/10/07 04:49:37;;;;;;;1.67;0.90;;;21.70;54.20;;;;;;4960643;28;20038;-51
2021/10/07 04:52:03;;;;;;;1.25;0.90;;;21.70;54.20;;;;;;4962384;28;20023;-51
2021/10/07 04:54:29;;;;;;;1.30;0.90;;;21.70;54.70;;;;;;4960640;28;20069;-52
2021/10/07 04:56:56;;;;;;;0.93;0.80;;;21.70;54.20;;;;;;4960546;28;20079;-59
2021/10/07 04:59:21;;;;;;;1.00;0.80;;;21.70;54.20;;;;;;4968494;28;20041;-49
2021/10/07 05:01:47;;;;;;;1.40;0.80;;;21.70;54.20;;;;;;4964440;28;20039;-59
2021/10/07 05:04:12;;;;;;;1.25;0.90;;;21.70;54.20;;;;;;4955744;28;22110;-55
2021/10/07 05:06:38;;;;;;;1.63;1.00;;;21.70;54.20;;;;;;4962178;28;20102;-54
2021/10/07 05:09:04;;;;;;;1.55;0.90;;;21.70;54.20;;;;;;4956005;28;20038;-50
2021/10/07 05:11:29;;;;;;;1.20;0.90;;;21.70;54.20;;;;;;4958649;28;20045;-52
2021/10/07 05:13:55;;;;;;;1.42;0.90;;;21.70;54.20;;;;;;4958750;28;20546;-52
2021/10/07 05:16:20;;;;;;;1.58;1.00;;;21.70;54.30;;;;;;4955043;28;20483;-48
2021/10/07 05:18:46;;;;;;;1.35;0.90;;;21.70;54.30;;;;;;4969753;28;20074;-58
2021/10/07 05:21:12;;;;;;;1.55;0.90;;;21.60;54.20;;;;;;4976757;28;20109;-54
2021/10/07 05:23:37;;;;;;;2.20;1.10;;;21.70;54.30;;;;;;4965695;28;20024;-52
2021/10/07 05:26:03;;;;;;;1.20;0.90;;;21.60;54.20;;;;;;4971898;28;20360;-53
2021/10/07 05:28:29;;;;;;;1.50;0.90;;;21.60;54.20;;;;;;4972102;28;20020;-56
2021/10/07 05:30:54;;;;;;;1.83;1.00;;;21.60;54.20;;;;;;4954644;28;20042;-59
2021/10/07 05:33:21;;;;;;;1.52;1.00;;;21.70;54.30;;;;;;4969589;28;20639;-50
2021/10/07 05:35:48;;;;;;;1.50;0.80;;;21.60;54.20;;;;;;4959788;28;20039;-51
2021/10/07 05:38:14;;;;;;;1.30;0.90;;;21.60;54.20;;;;;;4968469;28;20054;-57
2021/10/07 05:40:40;;;;;;;1.33;0.80;;;21.60;54.30;;;;;;4974396;28;20236;-56
2021/10/07 05:43:08;;;;;;;1.08;0.80;;;21.60;54.30;;;;;;4978277;28;20121;-53
2021/10/07 05:45:34;;;;;;;1.55;0.98;;;21.60;54.30;;;;;;4967420;28;20531;-57
2021/10/07 05:47:59;;;;;;;1.73;0.93;;;21.60;54.30;;;;;;4958911;28;20030;-59
2021/10/07 05:50:25;;;;;;;1.42;0.93;;;21.60;54.30;;;;;;4971835;28;20175;-54
2021/10/07 05:52:51;;;;;;;2.10;1.02;;;21.60;54.60;;;;;;4966151;28;20110;-52
2021/10/07 05:55:16;;;;;;;2.03;1.10;;;21.70;55.00;;;;;;4975922;28;20085;-53
2021/10/07 05:57:42;;;;;;;1.50;0.93;;;21.90;54.60;;;;;;4970785;28;20038;-54
2021/10/07 06:00:08;;;;;;;1.73;1.00;;;22.00;54.30;;;;;;4978409;28;20110;-54
2021/10/07 06:02:37;;;;;;;2.20;1.00;;;22.20;54.00;;;;;;4970826;28;20126;-55
2021/10/07 06:05:04;;;;;;;2.25;1.10;;;22.30;53.60;;;;;;4961265;28;20022;-57
2021/10/07 06:07:30;;;;;;;1.70;1.02;;;22.40;53.40;;;;;;4963408;28;20019;-53
2021/10/07 06:09:56;;;;;;;2.03;1.08;;;22.50;53.10;;;;;;4978819;28;20034;-49
2021/10/07 06:12:21;;;;;;;1.48;1.00;;;22.60;52.90;;;;;;4970096;28;20027;-55
2021/10/07 06:14:47;;;;;;;1.50;0.93;;;22.70;52.70;;;;;;4977935;28;20149;-51
2021/10/07 06:17:14;;;;;;;1.15;0.85;;;22.80;52.50;;;;;;4969348;28;20051;-54
2021/10/07 06:19:42;;;;;;;1.38;0.90;;;22.90;52.20;;;;;;4963046;28;20082;-55
2021/10/07 06:22:08;;;;;;;1.73;1.10;;;22.80;52.10;;;;;;4956681;28;20115;-52
2021/10/07 06:24:34;;;;;;;1.75;0.98;;;22.80;52.20;;;;;;4971526;28;20499;-51
2021/10/07 06:27:00;;;;;;;1.58;0.85;;;22.80;52.40;;;;;;4976194;28;20021;-53
2021/10/07 06:29:27;;;;;;;1.50;0.90;;;22.70;52.40;;;;;;4967702;28;20027;-55
2021/10/07 06:31:53;;;;;;;1.48;0.80;;;22.70;52.40;;;;;;4963552;28;20055;-52
2021/10/07 06:34:19;;;;;;;1.63;0.90;;;22.70;52.50;;;;;;4984179;28;20031;-53
2021/10/07 06:36:44;;;;;;;2.67;1.00;;;22.70;52.50;;;;;;4969499;28;20070;-49
2021/10/07 06:39:10;;;;;;;2.08;1.00;;;22.70;52.40;;;;;;4979873;28;20466;-50
2021/10/07 06:41:36;;;;;;;0.95;0.75;;;22.70;52.50;;;;;;4978151;28;20050;-49
2021/10/07 06:44:02;;;;;;;1.30;0.85;;;22.70;52.50;;;;;;4987589;28;20045;-55
2021/10/07 06:46:28;;;;;;;2.08;1.00;;;22.70;52.50;;;;;;4980931;28;22522;-57
2021/10/07 06:48:55;;;;;;;1.63;1.00;;;22.70;52.50;;;;;;4978359;28;20023;-51
2021/10/07 06:51:23;;;;;;;1.15;0.73;;;22.80;52.50;;;;;;4981714;28;20034;-56
2021/10/07 06:53:52;;;;;;;1.23;0.80;;;22.70;52.50;;;;;;4982685;28;20541;-53
2021/10/07 06:56:18;;;;;;;;;;;22.80;52.60;;;;;;4974977;28;20383;-52
2021/10/07 06:58:43;;;;;;;0.98;0.65;;;22.80;52.60;;;;;;4970914;28;19917;-50
2021/10/07 07:01:09;;;;;;;1.30;0.77;;;22.80;52.60;;;;;;4969801;28;20057;-56
2021/10/07 07:03:34;;;;;;;0.93;0.82;;;22.80;52.50;;;;;;4974013;28;20042;-52
2021/10/07 07:06:00;;;;;;;1.60;0.90;;;22.80;52.50;;;;;;4973349;28;20393;-53
2021/10/07 07:08:26;;;;;;;2.55;0.82;;;22.80;52.50;;;;;;4979250;28;20096;-56
2021/10/07 07:10:53;;;;;;;1.17;0.77;;;22.80;52.40;;;;;;4972403;28;20038;-57
2021/10/07 07:13:19;;;;;;;1.08;0.68;;;22.80;52.40;;;;;;4977585;28;20126;-53
2021/10/07 07:15:44;;;;;;;1.33;0.80;;;22.80;52.40;;;;;;4969723;28;20105;-59
2021/10/07 07:18:10;;;;;;;1.05;0.80;;;22.80;52.30;;;;;;4976905;28;20110;-59
2021/10/07 07:20:36;;;;;;;1.40;0.90;;;22.90;52.30;;;;;;4964377;28;20114;-53
2021/10/07 07:23:01;;;;;;;1.85;0.90;;;22.90;52.70;;;;;;4967405;28;20057;-50
2021/10/07 07:25:27;;;;;;;1.48;0.90;;;22.90;52.30;;;;;;4973083;28;20086;-54
2021/10/07 07:27:52;;;;;;;1.27;0.90;;;22.90;52.30;;;;;;4971921;28;20419;-51
2021/10/07 07:30:18;;;;;;;1.27;0.82;;;22.90;52.10;;;;;;4980878;28;20080;-55
2021/10/07 07:32:44;;;;;;;2.25;1.00;;;22.90;52.20;;;;;;4966047;28;20045;-58
2021/10/07 07:35:10;;;;;;;1.20;0.88;;;22.90;52.10;;;;;;4952451;28;20057;-50
2021/10/07 07:37:35;;;;;;;1.52;0.90;;;22.90;52.10;;;;;;4964651;28;20126;-54
2021/10/07 07:40:01;;;;;;;1.60;0.90;;;22.90;52.10;;;;;;4965497;28;20106;-59
2021/10/07 07:42:27;;;;;;;1.25;0.90;;;23.00;52.00;;;;;;4976447;28;20049;-56
2021/10/07 07:44:53;;;;;;;1.70;0.93;;;23.00;52.00;;;;;;4972363;28;20483;-56
2021/10/07 07:47:21;;;;;;;1.40;0.90;;;23.00;52.00;;;;;;4977220;28;20080;-54
2021/10/07 07:49:47;;;;;;;1.38;0.90;;;23.00;52.00;;;;;;4979460;28;20046;-58
2021/10/07 07:52:12;;;;;;;2.25;1.00;;;23.00;52.00;;;;;;4970204;28;20034;-50
2021/10/07 07:54:38;;;;;;;1.73;0.90;;;23.00;52.00;;;;;;4977805;28;20047;-52
2021/10/07 07:57:04;;;;;;;1.80;0.93;;;23.00;52.00;;;;;;4973854;28;20038;-53
2021/10/07 07:59:29;;;;;;;1.85;0.90;;;23.00;52.00;;;;;;4973781;28;20380;-53
2021/10/07 08:01:55;;;;;;;3.17;1.00;;;23.00;52.00;;;;;;4969760;28;20486;-58
2021/10/07 08:04:20;;;;;;;2.20;1.00;;;23.00;51.90;;;;;;4975311;28;20031;-55
2021/10/07 08:06:46;;;;;;;1.95;1.10;;;23.00;51.90;;;;;;4970325;28;20031;-54
2021/10/07 08:09:12;;;;;;;1.92;1.08;;;23.00;51.90;;;;;;4972274;28;20042;-54
2021/10/07 08:11:39;;;;;;;2.20;0.80;;;23.00;52.00;;;;;;4972054;28;20027;-50
2021/10/07 08:14:09;;;;;;;1.67;0.90;;;23.00;51.90;;;;;;4968555;28;20766;-50
2021/10/07 08:16:35;;;;;;;1.75;0.90;;;23.00;51.90;;;;;;4980551;28;20130;-50
2021/10/07 08:19:01;;;;;;;1.70;1.00;;;23.00;51.90;;;;;;4977299;28;20045;-59
2021/10/07 08:21:27;;;;;;;2.08;1.02;;;23.10;52.00;;;;;;4957810;28;20030;-54
2021/10/07 08:23:54;;;;;;;3.17;0.95;;;23.10;51.90;;;;;;4970524;28;20033;-54
2021/10/07 08:26:20;;;;;;;1.20;0.80;;;23.10;51.90;;;;;;4959551;28;20356;-55
2021/10/07 08:28:45;;;;;;;2.25;0.90;;;23.10;52.00;;;;;;4968542;28;20372;-56
2021/10/07 08:31:12;;;;;;;1.27;0.90;;;23.10;51.90;;;;;;4972721;28;20041;-51
2021/10/07 08:33:39;;;;;;;1.63;0.90;;;23.10;51.90;;;;;;4977282;28;20039;-54
2021/10/07 08:36:05;;;;;;;2.13;1.02;;;23.10;52.00;;;;;;4976421;28;20216;-59
2021/10/07 08:38:32;;;;;;;1.38;0.90;;;23.10;51.90;;;;;;4968814;28;20444;-54
2021/10/07 08:40:59;;;;;;;1.13;0.80;;;23.10;51.90;;;;;;4974743;28;20607;-53
2021/10/07 08:43:26;;;;;;;1.70;0.90;;;23.10;51.90;;;;;;4968526;28;20145;-50
2021/10/07 08:45:52;;;;;;;1.30;0.90;;;23.10;51.90;;;;;;4971531;28;20422;-58
2021/10/07 08:48:18;;;;;;;1.88;0.90;;;23.10;51.90;;;;;;4982510;28;20074;-57
2021/10/07 08:50:43;;;;;;;1.23;0.90;;;23.10;51.90;;;;;;4970011;28;20031;-53
2021/10/07 08:53:09;;;;;;;1.35;0.88;;;23.10;51.80;;;;;;4975226;28;20050;-52
2021/10/07 08:55:35;;;;;;;1.40;0.95;;;23.20;51.90;;;;;;4972731;28;20078;-54
2021/10/07 08:58:01;;;;;;;0.93;0.80;;;23.20;51.90;;;;;;4978592;28;20201;-52
2021/10/07 09:00:26;;;;;;;1.45;0.90;;;23.20;51.80;;;;;;4974296;28;20105;-53
2021/10/07 09:02:52;;;;;;;2.05;0.90;;;23.10;51.80;;;;;;4973148;28;20047;-56
2021/10/07 09:05:25;;;;;;;1.30;1.00;;;23.10;51.80;;;;;;4955604;28;20039;-54
2021/10/07 09:08:05;;;;;;;1.00;0.70;;;23.10;51.70;;;;;;4974607;28;20390;-54
2021/10/07 09:10:56;;;;;;;1.50;0.90;;;23.10;51.80;;;;;;4965111;28;20115;-59
2021/10/07 09:13:25;;;;;;;1.70;1.00;;;23.20;51.90;;;;;;4979162;28;20057;-54
2021/10/07 09:15:59;;;;;;;1.58;0.90;;;23.20;51.80;;;;;;4975550;28;20498;-55
2021/10/07 09:18:27;;;;;;;2.30;0.93;;;23.20;51.80;;;;;;4968977;28;20420;-56
2021/10/07 09:20:56;;;;;;;1.75;1.00;;;23.20;51.80;;;;;;4967770;28;20030;-55
2021/10/07 09:23:33;;;;;;;2.45;0.98;;;23.20;51.80;;;;;;4970159;28;20027;-53
2021/10/07 09:26:08;;;;;;;1.63;1.00;;;23.20;51.80;;;;;;4978405;28;20070;-49
2021/10/07 09:28:57;;;;;;;1.70;1.00;;;23.20;51.80;;;;;;4978892;28;20027;-51
2021/10/07 09:31:31;;;;;;;1.58;1.02;;;23.20;51.80;;;;;;4981628;28;20253;-50
2021/10/07 09:34:06;;;;;;;1.95;0.90;;;23.20;51.70;;;;;;4968593;28;20046;-50
2021/10/07 09:36:33;;;;;;;1.42;0.90;;;23.20;51.80;;;;;;4968736;28;20037;-54
2021/10/07 09:38:59;;;;;;;1.42;0.90;;;23.20;51.70;;;;;;4976688;28;20094;-53
2021/10/07 09:41:34;;;;;;;1.15;0.80;;;23.20;51.70;;;;;;4963165;28;20077;-54
2021/10/07 09:44:04;;;;;;;1.63;0.80;;;23.20;51.70;;;;;;4966247;28;20046;-56
2021/10/07 09:46:40;;;;;;;2.05;1.00;;;23.30;51.70;;;;;;4978180;28;20056;-59
2021/10/07 09:49:33;;;;;;;2.28;0.88;;;23.20;51.70;;;;;;4980155;28;20027;-55
2021/10/07 09:52:01;;;;;;;1.50;0.98;;;23.20;51.70;;;;;;4971177;28;20030;-51
2021/10/07 09:54:33;;;;;;;1.20;0.80;;;23.30;51.70;;;;;;4971037;28;20053;-51
2021/10/07 09:57:01;;;;;;;1.50;0.90;;;23.20;51.80;;;;;;4972626;28;20030;-58
2021/10/07 09:59:28;;;;;;;2.72;0.90;;;23.20;52.30;;;;;;4974825;28;20038;-53
2021/10/07 10:01:55;;;;;;;2.08;1.00;;;23.20;51.70;;;;;;4961065;28;20035;-52
2021/10/07 10:04:22;;;;;;;1.90;0.90;;;23.20;51.70;;;;;;4969786;28;20035;-60
2021/10/07 10:06:49;;;;;;;2.08;1.00;;;23.20;51.60;;;;;;4970555;28;20046;-53
2021/10/07 10:09:14;;;;;;;1.65;0.90;;;23.30;51.70;;;;;;4971503;28;20038;-56
2021/10/07 10:11:43;;;;;;;1.92;0.90;;;23.20;51.60;;;;;;4971266;28;20375;-55
2021/10/07 10:14:09;;;;;;;1.50;0.80;;;23.20;51.60;;;;;;4968914;28;20725;-54
2021/10/07 10:16:36;;;;;;;2.00;0.88;;;23.20;51.60;;;;;;4965274;28;20042;-52
2021/10/07 10:19:03;;;;;;;4.28;1.55;;;23.30;51.60;;;;;;4971122;28;20046;-55
2021/10/07 10:21:33;;;;;;;1.60;0.90;;;23.30;51.60;;;;;;4973658;28;20057;-56
2021/10/07 10:24:00;;;;;;;1.55;0.90;;;23.30;51.60;;;;;;4969192;28;20459;-50
2021/10/07 10:26:27;;;;;;;1.60;0.82;;;23.30;51.60;;;;;;4970638;28;20130;-54
2021/10/07 10:28:53;;;;;;;1.85;0.90;;;23.30;51.60;;;;;;4969872;28;20026;-59
2021/10/07 10:31:35;;;;;;;1.55;0.80;;;23.30;51.60;;;;;;4965135;28;20039;-55
2021/10/07 10:34:16;;;;;;;1.23;0.80;;;23.30;51.60;;;;;;4981033;28;20177;-59
2021/10/07 10:36:53;;;;;;;2.38;1.00;;;23.30;51.70;;;;;;4961862;28;20971;-55
2021/10/07 10:39:26;;;;;;;2.03;1.00;;;23.30;51.70;;;;;;4967636;28;20451;-59
2021/10/07 10:41:59;;;;;;;2.08;1.10;;;23.30;51.60;;;;;;4971726;28;20654;-55
2021/10/07 10:44:27;;;;;;;2.38;1.00;;;23.30;51.60;;;;;;4967810;28;20526;-52
2021/10/07 10:47:08;;;;;;;1.42;0.90;;;23.30;51.70;;;;;;4970177;28;20035;-54
2021/10/07 10:49:51;;;;;;;1.73;0.90;;;23.30;51.60;;;;;;4964085;28;20066;-50
2021/10/07 10:52:22;;;;;;;1.10;0.80;;;23.30;51.60;;;;;;4966657;28;20374;-55
2021/10/07 10:54:51;;;;;;;1.70;0.90;;;23.30;51.70;;;;;;4963317;28;20035;-52
2021/10/07 10:57:30;;;;;;;2.00;0.90;;;23.30;51.70;;;;;;4975957;28;20049;-54
2021/10/07 11:00:07;;;;;;;1.75;0.90;;;23.30;51.70;;;;;;4967765;28;20031;-53
2021/10/07 11:02:34;;;;;;;1.42;0.80;;;23.30;51.70;;;;;;4964940;28;20050;-59
2021/10/07 11:05:14;;;;;;;1.30;0.82;;;23.20;51.80;;;;;;4971984;28;20049;-54
2021/10/07 11:07:40;;;;;;;2.28;1.00;;;23.30;51.90;;;;;;4980150;28;20043;-53
2021/10/07 11:10:31;;;;;;;2.30;1.02;;;23.30;51.90;;;;;;4982142;28;20341;-53
2021/10/07 11:12:58;;;;;;;2.10;0.90;;;23.30;51.90;;;;;;4983596;28;20118;-50
2021/10/07 11:15:27;;;;;;;1.98;0.80;;;23.30;51.90;;;;;;4966999;28;20027;-56
2021/10/07 11:17:54;;;;;;;1.58;0.90;;;23.30;51.90;;;;;;4970450;28;20035;-55
2021/10/07 11:20:29;;;;;;;2.78;1.02;;;23.30;51.90;;;;;;4981255;28;20065;-56
2021/10/07 11:23:04;;;;;;;1.98;1.13;;;23.30;51.80;;;;;;4982630;28;20031;-54
2021/10/07 11:25:32;;;;;;;1.40;0.80;;;23.30;51.80;;;;;;4978014;28;20081;-54
2021/10/07 11:27:58;;;;;;;2.00;0.80;;;23.30;51.80;;;;;;4975906;28;20746;-52
2021/10/07 11:30:25;;;;;;;3.35;1.13;;;23.30;51.80;;;;;;4971929;28;20027;-52
2021/10/07 11:32:51;;;;;;;2.05;0.90;;;23.30;51.70;;;;;;4988326;28;20031;-54
2021/10/07 11:35:19;;;;;;;1.80;0.90;;;23.30;51.80;;;;;;4976060;28;20027;-56
2021/10/07 11:37:44;;;;;;;1.17;0.80;;;23.30;51.80;;;;;;4967953;28;20089;-55
2021/10/07 11:40:37;;;;;;;1.10;0.80;;;23.30;51.80;;;;;;4979150;28;20034;-51
2021/10/07 11:43:06;;;;;;;1.98;0.90;;;23.30;51.70;;;;;;4988691;28;20364;-52
2021/10/07 11:45:39;;;;;;;1.55;0.90;;;23.30;51.80;;;;;;4967363;28;20030;-55
2021/10/07 11:48:08;;;;;;;1.88;0.90;;;23.30;51.80;;;;;;4977643;28;20034;-54
2021/10/07 11:50:40;;;;;;;1.35;0.90;;;23.30;51.70;;;;;;4979496;28;20023;-59
2021/10/07 11:53:07;;;;;;;2.13;0.90;;;23.30;51.70;;;;;;4980484;28;20064;-55
2021/10/07 11:55:33;;;;;;;2.03;1.00;;;23.30;51.70;;;;;;4974472;28;20050;-59
2021/10/07 11:58:00;;;;;;;2.17;0.90;;;23.40;51.80;;;;;;4982909;28;20173;-52
2021/10/07 12:00:55;;;;;;;2.40;1.10;;;23.30;51.70;;;;;;4970664;28;20041;-54
2021/10/07 12:03:33;;;;;;;1.65;0.90;;;23.40;51.80;;;;;;4989926;28;20116;-54
2021/10/07 12:06:08;;;;;;;1.50;1.00;;;23.40;51.70;;;;;;4978143;28;20019;-51
2021/10/07 12:08:36;;;;;;;2.20;1.00;;;23.30;51.70;;;;;;4964774;28;20415;-58
2021/10/07 12:11:04;;;;;;;1.88;0.80;;;23.30;51.70;;;;;;4969138;28;20018;-55
2021/10/07 12:13:37;;;;;;;1.83;0.90;;;23.30;52.00;;;;;;4972134;28;20034;-53
2021/10/07 12:16:03;;;;;;;2.28;1.20;;;23.40;51.80;;;;;;4961629;28;20118;-55
2021/10/07 12:18:30;;;;;;;1.10;0.85;;;23.30;51.70;;;;;;4976336;28;20112;-54
2021/10/07 12:20:59;;;;;;;2.35;0.90;;;23.40;51.70;;;;;;4970810;28;20661;-52
2021/10/07 12:23:25;;;;;;;2.00;0.90;;;23.40;51.70;;;;;;4973733;28;20082;-54
2021/10/07 12:25:58;;;;;;;1.98;1.10;;;23.40;51.70;;;;;;4974670;28;20099;-58
2021/10/07 12:28:24;;;;;;;1.77;1.05;;;23.40;51.70;;;;;;4978282;28;20384;-53
2021/10/07 12:30:57;;;;;;;1.63;0.98;;;23.40;51.70;;;;;;4986992;28;20158;-56
2021/10/07 12:33:29;;;;;;;1.95;0.90;;;23.40;51.70;;;;;;4979098;28;20594;-56
2021/10/07 12:36:09;;;;;;;2.55;1.00;;;23.40;51.70;;;;;;4974565;28;20034;-52
2021/10/07 12:38:54;;;;;;;2.85;1.20;;;23.40;51.70;;;;;;4975150;28;20039;-53
2021/10/07 12:41:33;;;;;;;1.33;1.00;;;23.40;51.70;;;;;;4978226;28;20109;-54
2021/10/07 12:44:00;;;;;;;1.70;0.85;;;23.40;51.70;;;;;;4976862;28;20098;-54
2021/10/07 12:46:26;;;;;;;1.55;0.80;;;23.40;51.70;;;;;;4966504;28;20030;-54
2021/10/07 12:48:55;;;;;;;2.63;0.80;;;23.40;51.70;;;;;;4975381;28;20058;-54
2021/10/07 12:51:23;;;;;;;2.20;1.00;;;23.40;51.70;;;;;;4974846;28;20026;-55
2021/10/07 12:53:50;;;;;;;2.20;0.90;;;23.40;51.70;;;;;;4977625;28;20114;-58